This is the latest recevied weather packets stored in our database for station/object HA5CD-6. If no packets are shown the sender has not sent any weather packets the latest 10 day(s).
| Time | Temp. | Humidity | Pressure | Rain* | Wind** | Luminosity | Snow |
|---|---|---|---|---|---|---|---|
| 1777582867 | 8.89° C | 36% | 1004 hPa | - | - | - | - |
| 1777581065 | 9.44° C | 35% | 1004 hPa | - | - | - | - |
| 1777579865 | 8.89° C | 35% | 1004 hPa | - | - | - | - |
| 1777573864 | 9.44° C | 37% | 1003 hPa | - | - | - | - |
| 1777570263 | 13.33° C | 26% | 1002 hPa | - | - | - | - |
| 1777569663 | 15.56° C | 22% | 1002 hPa | - | - | - | - |
| 1777569063 | 17.22° C | 21% | 1002 hPa | - | - | - | - |
| 1777566062 | 17.78° C | 20% | 1002 hPa | - | - | - | - |
| 1777565462 | 18.89° C | 19% | 1002 hPa | - | - | - | - |
| 1777564262 | 18.89° C | 19% | 1002 hPa | - | - | - | - |
| 1777563061 | 20° C | 18% | 1002 hPa | - | - | - | - |
| 1777562461 | 19.44° C | 17% | 1002 hPa | - | - | - | - |
| 1777557660 | 18.89° C | 17% | 1002 hPa | - | - | - | - |
| 1777557060 | 20° C | 16% | 1002 hPa | - | - | - | - |
| 1777555858 | 20° C | 17% | 1003 hPa | - | - | - | - |
| 1777555258 | 18.89° C | 19% | 1003 hPa | - | - | - | - |
| 1777554660 | 20° C | 17% | 1003 hPa | - | - | - | - |
| 1777554058 | 18.33° C | 19% | 1003 hPa | - | - | - | - |
| 1777553458 | 18.33° C | 18% | 1003 hPa | - | - | - | - |
| 1777552858 | 17.78° C | 18% | 1003 hPa | - | - | - | - |
| 1777552258 | 18.89° C | 19% | 1003 hPa | - | - | - | - |
| 1777551658 | 17.78° C | 20% | 1003 hPa | - | - | - | - |
| 1777548655 | 16.11° C | 23% | 1004 hPa | - | - | - | - |
| 1777548055 | 16.67° C | 23% | 1004 hPa | - | - | - | - |
| 1777547455 | 16.11° C | 23% | 1004 hPa | - | - | - | - |
* Rain since midnight (hover to see other rain measurements)
** Current wind speed in m/s (hover to see current wind gust speed)